Time;durP1;ratioP1;P1;durP2;ratioP2;P2;SDS_P1;SDS_P2;PMS_P1;PMS_P2;Temp;Humidity;BMP_temperature;BMP_pressure;BME280_temperature;BME280_humidity;BME280_pressure;Samples;Min_cycle;Max_cycle;Signal;HPM_P1;HPM_P2
2023/02/22 00:00:18;;;;;;;41.17;18.20;;;11.80;99.90;;;;;;5070936;28;20052;-70
2023/02/22 00:02:45;;;;;;;39.45;16.98;;;11.70;99.90;;;;;;5070690;28;20032;-70
2023/02/22 00:05:14;;;;;;;40.20;16.40;;;11.80;99.90;;;;;;5070720;28;20024;-70
2023/02/22 00:07:40;;;;;;;35.30;15.68;;;11.70;99.90;;;;;;5071232;28;20020;-70
2023/02/22 00:10:12;;;;;;;39.38;16.05;;;11.70;99.90;;;;;;5070686;28;20120;-70
2023/02/22 00:12:42;;;;;;;41.35;17.00;;;11.70;99.90;;;;;;5069713;28;20029;-70
2023/02/22 00:15:08;;;;;;;36.13;16.27;;;11.70;99.90;;;;;;5070540;28;20395;-70
2023/02/22 00:17:35;;;;;;;40.20;16.77;;;11.70;99.90;;;;;;5070431;28;20123;-69
2023/02/22 00:20:00;;;;;;;42.13;16.70;;;11.70;99.90;;;;;;5070855;28;20130;-71
2023/02/22 00:22:26;;;;;;;36.95;15.75;;;11.70;99.90;;;;;;5070934;28;20506;-70
2023/02/22 00:24:52;;;;;;;40.80;17.17;;;11.70;99.90;;;;;;5070664;28;20036;-69
2023/02/22 00:27:17;;;;;;;39.45;15.45;;;11.70;99.90;;;;;;5070662;28;20051;-71
2023/02/22 00:29:45;;;;;;;42.75;17.02;;;11.60;99.90;;;;;;5069299;28;20047;-70
2023/02/22 00:32:11;;;;;;;40.88;16.48;;;11.50;99.90;;;;;;5070679;28;20016;-70
2023/02/22 00:34:36;;;;;;;42.00;16.05;;;11.50;99.90;;;;;;5069895;28;20420;-69
2023/02/22 00:37:03;;;;;;;45.28;16.45;;;11.50;99.90;;;;;;5069387;28;20318;-69
2023/02/22 00:39:29;;;;;;;42.08;17.00;;;11.40;99.90;;;;;;5070536;28;20040;-70
2023/02/22 00:41:55;;;;;;;34.45;14.18;;;11.40;99.90;;;;;;5070633;28;20059;-69
2023/02/22 00:44:21;;;;;;;39.53;16.08;;;11.50;99.90;;;;;;5069246;28;20489;-69
2023/02/22 00:46:48;;;;;;;38.47;15.05;;;11.50;99.90;;;;;;5071039;28;20035;-70
2023/02/22 00:49:15;;;;;;;41.75;16.17;;;11.60;99.90;;;;;;5070354;28;20116;-70
2023/02/22 00:51:41;;;;;;;40.05;15.73;;;11.60;99.90;;;;;;5070462;28;20033;-70
2023/02/22 00:54:07;;;;;;;43.30;15.20;;;11.50;99.90;;;;;;5070321;28;20040;-70
2023/02/22 00:56:33;;;;;;;43.63;16.38;;;11.70;99.90;;;;;;5070143;28;20064;-70
2023/02/22 00:58:59;;;;;;;41.80;16.35;;;11.50;99.90;;;;;;5070044;28;20029;-71
2023/02/22 01:01:26;;;;;;;36.60;14.73;;;11.50;99.90;;;;;;5070670;28;20017;-70
2023/02/22 01:03:52;;;;;;;36.10;15.18;;;11.50;99.90;;;;;;5070284;28;20463;-70
2023/02/22 01:06:18;;;;;;;38.72;15.57;;;11.50;99.90;;;;;;5068896;28;20032;-70
2023/02/22 01:08:45;;;;;;;39.80;15.57;;;11.50;99.90;;;;;;5070183;28;20025;-70
2023/02/22 01:11:11;;;;;;;38.72;14.93;;;11.40;99.90;;;;;;5070068;28;20027;-70
2023/02/22 01:13:37;;;;;;;36.25;15.98;;;11.40;99.90;;;;;;5070388;28;20024;-69
2023/02/22 01:16:07;;;;;;;38.55;15.25;;;11.30;99.90;;;;;;5068853;28;20040;-70
2023/02/22 01:18:36;;;;;;;36.50;15.07;;;11.30;99.90;;;;;;5068869;28;20044;-70
2023/02/22 01:21:05;;;;;;;44.78;16.33;;;11.30;99.90;;;;;;5069890;28;20032;-69
2023/02/22 01:23:31;;;;;;;41.03;16.25;;;11.20;99.90;;;;;;5069628;28;20044;-69
2023/02/22 01:25:57;;;;;;;43.25;16.15;;;11.20;99.90;;;;;;5068597;28;20029;-69
2023/02/22 01:28:23;;;;;;;40.88;15.77;;;11.10;99.90;;;;;;5069667;28;20053;-68
2023/02/22 01:30:48;;;;;;;46.92;16.95;;;11.10;99.90;;;;;;5073424;28;20444;-70
2023/02/22 01:33:14;;;;;;;44.17;16.17;;;11.10;99.90;;;;;;5073489;28;20482;-68
2023/02/22 01:35:42;;;;;;;42.83;17.30;;;11.00;99.90;;;;;;5073349;28;20029;-70
2023/02/22 01:38:09;;;;;;;34.72;14.57;;;11.00;99.90;;;;;;5073324;28;20466;-69
2023/02/22 01:40:37;;;;;;;33.83;14.85;;;10.90;99.90;;;;;;5072665;28;20017;-69
2023/02/22 01:43:22;;;;;;;41.78;15.18;;;10.80;99.90;;;;;;5073516;28;20041;-70
2023/02/22 01:46:01;;;;;;;34.97;14.13;;;10.70;99.90;;;;;;5073268;28;20025;-70
2023/02/22 01:48:29;;;;;;;39.45;14.88;;;10.60;99.90;;;;;;5073099;28;20035;-70
2023/02/22 01:51:11;;;;;;;41.35;14.73;;;10.60;99.90;;;;;;5073161;28;20048;-69
2023/02/22 01:54:12;;;;;;;39.45;15.10;;;10.50;99.90;;;;;;5073048;28;20482;-69
2023/02/22 01:56:44;;;;;;;38.75;15.63;;;10.40;99.90;;;;;;5028691;28;20060;-69
2023/02/22 01:59:11;;;;;;;38.13;15.48;;;10.40;99.90;;;;;;5072064;28;20024;-70
2023/02/22 02:01:41;;;;;;;37.85;14.85;;;10.40;99.90;;;;;;5073938;28;20031;-69
2023/02/22 02:04:24;;;;;;;35.30;13.77;;;10.30;99.90;;;;;;5072993;28;20116;-69
2023/02/22 02:06:52;;;;;;;38.63;15.25;;;10.30;99.90;;;;;;5072904;28;20049;-69
2023/02/22 02:09:56;;;;;;;43.55;16.35;;;10.30;99.90;;;;;;5072869;28;20116;-70
2023/02/22 02:12:22;;;;;;;36.55;14.27;;;10.20;99.90;;;;;;5073083;28;20025;-69
2023/02/22 02:14:48;;;;;;;39.33;14.88;;;10.00;99.90;;;;;;5071633;28;20358;-70
2023/02/22 02:17:17;;;;;;;36.35;13.90;;;9.90;99.90;;;;;;5072640;28;20473;-70
2023/02/22 02:20:12;;;;;;;42.17;16.55;;;9.90;99.90;;;;;;5073192;28;20107;-70
2023/02/22 02:23:22;;;;;;;44.55;16.35;;;9.80;99.90;;;;;;5072725;28;20182;-70
2023/02/22 02:26:14;;;;;;;44.92;15.57;;;9.80;99.90;;;;;;5025356;28;20052;-69
2023/02/22 02:28:55;;;;;;;44.95;16.05;;;9.70;99.90;;;;;;5071415;28;20382;-70
2023/02/22 02:31:33;;;;;;;42.22;14.82;;;9.60;99.90;;;;;;5072539;28;20051;-70
2023/02/22 02:34:14;;;;;;;39.53;14.48;;;9.50;99.90;;;;;;5072426;28;20132;-70
2023/02/22 02:36:49;;;;;;;38.25;14.05;;;9.40;99.90;;;;;;5087720;28;20032;-70
2023/02/22 02:39:26;;;;;;;42.50;16.25;;;9.40;99.90;;;;;;5092400;28;20531;-70
2023/02/22 02:41:51;;;;;;;37.80;13.60;;;9.50;99.90;;;;;;5092777;28;20032;-70
2023/02/22 02:44:50;;;;;;;42.45;14.68;;;9.40;99.90;;;;;;5092204;28;20432;-70
2023/02/22 02:47:33;;;;;;;39.30;14.02;;;9.40;99.90;;;;;;5060916;28;20104;-70
2023/02/22 02:50:17;;;;;;;37.78;14.40;;;9.30;99.90;;;;;;5092246;28;20028;-70
2023/02/22 02:52:45;;;;;;;39.95;14.70;;;9.20;99.90;;;;;;5092689;28;20024;-70
2023/02/22 02:55:12;;;;;;;41.33;14.93;;;9.20;99.90;;;;;;5092317;28;20424;-70
2023/02/22 02:57:37;;;;;;;41.88;14.75;;;9.20;99.90;;;;;;5092135;28;20502;-70
2023/02/22 03:00:21;;;;;;;39.83;14.65;;;9.10;99.90;;;;;;5092080;28;20102;-69
2023/02/22 03:03:18;;;;;;;44.35;14.90;;;9.10;99.90;;;;;;5091980;28;20035;-70
2023/02/22 03:06:20;;;;;;;46.97;15.65;;;9.10;99.90;;;;;;5091881;28;20036;-69
2023/02/22 03:09:02;;;;;;;55.17;16.33;;;9.10;99.90;;;;;;5090718;28;20035;-70
2023/02/22 03:11:50;;;;;;;37.40;14.13;;;9.00;99.90;;;;;;5091828;28;20040;-69
2023/02/22 03:14:20;;;;;;;;;;;9.00;99.90;;;;;;5091604;28;20098;-69
2023/02/22 03:16:58;;;;;;;44.38;14.80;;;9.00;99.90;;;;;;5092047;28;19904;-69
2023/02/22 03:19:42;;;;;;;40.28;15.60;;;8.80;99.90;;;;;;5092084;28;20028;-70
2023/02/22 03:22:13;;;;;;;38.70;14.63;;;8.80;99.90;;;;;;5091516;28;20031;-70
2023/02/22 03:24:51;;;;;;;41.08;15.70;;;8.80;99.90;;;;;;5091354;28;20063;-69
2023/02/22 03:27:42;;;;;;;37.53;13.93;;;8.70;99.90;;;;;;5091452;28;20028;-70
2023/02/22 03:30:11;;;;;;;37.85;14.30;;;8.70;99.90;;;;;;5091340;28;20087;-69
2023/02/22 03:32:41;;;;;;;44.40;14.88;;;8.80;99.90;;;;;;5091302;28;20036;-68
2023/02/22 03:35:15;;;;;;;39.35;14.00;;;8.80;99.90;;;;;;5091410;28;20024;-69
2023/02/22 03:37:45;;;;;;;50.83;17.30;;;8.70;99.90;;;;;;5091733;28;20031;-69
2023/02/22 03:40:15;;;;;;;37.58;13.23;;;8.60;99.90;;;;;;5091409;28;20032;-69
2023/02/22 03:42:49;;;;;;;37.40;14.57;;;8.60;99.90;;;;;;5091135;28;20028;-69
2023/02/22 03:45:20;;;;;;;43.25;15.93;;;8.60;99.90;;;;;;5091304;28;20042;-68
2023/02/22 03:47:50;;;;;;;36.03;14.13;;;8.50;99.90;;;;;;5090460;28;20383;-69
2023/02/22 03:50:20;;;;;;;37.97;13.48;;;8.50;99.90;;;;;;5091135;28;20105;-70
2023/02/22 03:52:46;;;;;;;36.40;13.07;;;8.50;99.90;;;;;;5091341;28;20033;-69
2023/02/22 03:55:16;;;;;;;38.70;13.98;;;8.40;99.90;;;;;;5091014;28;20054;-69
2023/02/22 03:57:49;;;;;;;40.67;14.23;;;8.40;99.90;;;;;;5091021;28;20421;-69
2023/02/22 04:00:19;;;;;;;37.78;14.52;;;8.40;99.90;;;;;;5090954;28;20059;-70
2023/02/22 04:02:45;;;;;;;40.58;14.65;;;8.40;99.90;;;;;;5089827;28;20125;-69
2023/02/22 04:05:12;;;;;;;35.05;13.23;;;8.40;99.90;;;;;;5090912;28;20099;-70
2023/02/22 04:07:41;;;;;;;40.38;14.75;;;8.30;99.90;;;;;;5091739;28;20020;-69
2023/02/22 04:10:08;;;;;;;36.35;13.77;;;8.30;99.90;;;;;;5090830;28;20347;-69
2023/02/22 04:12:34;;;;;;;40.70;15.00;;;8.40;99.90;;;;;;5091206;28;20115;-70
2023/02/22 04:15:01;;;;;;;38.17;14.40;;;8.30;99.90;;;;;;5090685;28;20115;-70
2023/02/22 04:17:26;;;;;;;46.47;15.27;;;8.30;99.90;;;;;;5090943;28;20032;-70
2023/02/22 04:19:52;;;;;;;42.83;14.75;;;8.30;99.90;;;;;;5090243;28;20459;-70
2023/02/22 04:22:18;;;;;;;42.83;15.50;;;8.30;99.90;;;;;;5090659;28;20027;-70
2023/02/22 04:24:44;;;;;;;40.55;15.63;;;8.20;99.90;;;;;;5090530;28;20036;-69
2023/02/22 04:27:10;;;;;;;37.03;14.00;;;8.30;99.90;;;;;;5090679;28;20028;-70
2023/02/22 04:29:35;;;;;;;37.88;14.25;;;8.20;99.90;;;;;;5090284;28;20036;-70
2023/02/22 04:32:01;;;;;;;35.72;14.35;;;8.20;99.90;;;;;;5090671;28;20038;-70
2023/02/22 04:34:27;;;;;;;40.15;14.75;;;8.30;99.90;;;;;;5090066;28;20434;-69
2023/02/22 04:36:52;;;;;;;45.40;15.48;;;8.20;99.90;;;;;;5090567;28;20480;-70
2023/02/22 04:39:18;;;;;;;35.10;12.63;;;8.20;99.90;;;;;;5090356;28;20039;-69
2023/02/22 04:41:43;;;;;;;36.47;14.32;;;8.10;99.90;;;;;;5090391;28;20042;-69
2023/02/22 04:44:09;;;;;;;42.47;15.00;;;8.10;99.90;;;;;;5090115;28;20408;-69
2023/02/22 04:46:35;;;;;;;39.55;14.75;;;8.00;99.90;;;;;;5091068;28;20024;-70
2023/02/22 04:49:00;;;;;;;32.53;12.93;;;8.10;99.90;;;;;;5090450;28;20518;-70
2023/02/22 04:51:26;;;;;;;40.92;14.98;;;8.10;99.90;;;;;;5090473;28;20025;-70
2023/02/22 04:53:52;;;;;;;39.35;14.93;;;8.10;99.90;;;;;;5090304;28;20043;-70
2023/02/22 04:56:18;;;;;;;35.33;13.57;;;8.30;99.90;;;;;;5089054;28;20119;-69
2023/02/22 04:58:44;;;;;;;37.90;13.30;;;8.20;99.90;;;;;;5090663;28;20024;-69
2023/02/22 05:01:09;;;;;;;36.88;14.05;;;8.40;99.90;;;;;;5090438;28;20028;-70
2023/02/22 05:03:39;;;;;;;41.00;14.32;;;8.50;99.90;;;;;;5091290;28;20036;-70
2023/02/22 05:06:05;;;;;;;39.20;14.48;;;8.50;99.90;;;;;;5094272;28;20024;-70
2023/02/22 05:08:31;;;;;;;37.70;15.07;;;8.50;99.90;;;;;;5094082;28;20545;-70
2023/02/22 05:10:56;;;;;;;40.17;14.10;;;8.50;99.90;;;;;;5094012;28;20107;-70
2023/02/22 05:13:22;;;;;;;34.83;13.35;;;8.50;99.90;;;;;;5094498;28;20024;-70
2023/02/22 05:15:47;;;;;;;40.13;14.45;;;8.60;99.90;;;;;;5093869;28;20047;-70
2023/02/22 05:18:14;;;;;;;34.67;13.60;;;8.60;99.90;;;;;;5093998;28;20038;-69
2023/02/22 05:20:39;;;;;;;38.00;13.70;;;8.60;99.90;;;;;;5093935;28;20485;-70
2023/02/22 05:23:05;;;;;;;40.58;14.85;;;8.60;99.90;;;;;;5094095;28;20089;-70
2023/02/22 05:25:32;;;;;;;33.15;12.48;;;8.60;99.90;;;;;;5094451;28;20032;-70
2023/02/22 05:28:02;;;;;;;38.03;13.50;;;8.70;99.90;;;;;;5093987;28;20569;-69
2023/02/22 05:30:32;;;;;;;41.13;14.63;;;8.80;99.90;;;;;;5093933;28;20036;-70
2023/02/22 05:32:58;;;;;;;33.05;13.90;;;8.80;99.90;;;;;;5093731;28;20547;-69
2023/02/22 05:35:25;;;;;;;34.63;13.05;;;8.70;99.90;;;;;;5093799;28;20176;-70
2023/02/22 05:37:51;;;;;;;32.40;13.40;;;8.70;99.90;;;;;;5093857;28;20043;-70
2023/02/22 05:40:19;;;;;;;30.02;12.30;;;8.80;99.90;;;;;;5092363;28;20028;-70
2023/02/22 05:42:46;;;;;;;42.92;15.10;;;8.70;99.90;;;;;;5093266;28;20032;-69
2023/02/22 05:45:13;;;;;;;28.80;12.30;;;8.50;99.90;;;;;;5093498;28;20417;-70
2023/02/22 05:47:39;;;;;;;35.30;12.63;;;8.60;99.90;;;;;;5093562;28;20040;-69
2023/02/22 05:50:05;;;;;;;35.65;12.38;;;8.60;99.90;;;;;;5093307;28;20020;-69
2023/02/22 05:52:31;;;;;;;29.63;12.00;;;8.30;99.90;;;;;;5093632;28;20535;-69
2023/02/22 05:54:56;;;;;;;33.67;12.02;;;8.50;99.90;;;;;;5093168;28;20024;-70
2023/02/22 05:57:22;;;;;;;32.60;13.52;;;8.50;99.90;;;;;;5093383;28;20210;-70
2023/02/22 05:59:48;;;;;;;34.03;12.45;;;8.50;99.90;;;;;;5092014;28;20056;-71
2023/02/22 06:02:13;;;;;;;30.05;12.23;;;8.50;99.90;;;;;;5092993;28;20036;-71
2023/02/22 06:04:42;;;;;;;37.78;12.82;;;8.50;99.90;;;;;;5093323;28;20091;-69
2023/02/22 06:07:08;;;;;;;32.55;12.20;;;8.50;99.90;;;;;;5093098;28;20048;-69
2023/02/22 06:09:33;;;;;;;31.33;11.90;;;8.50;99.90;;;;;;5092800;28;20016;-70
2023/02/22 06:11:59;;;;;;;31.88;12.65;;;8.50;99.90;;;;;;5092769;28;20029;-70
2023/02/22 06:14:25;;;;;;;30.77;11.88;;;8.50;99.90;;;;;;5092347;28;20412;-71
2023/02/22 06:16:55;;;;;;;37.83;12.40;;;8.50;99.90;;;;;;5093323;28;20030;-70
2023/02/22 06:19:20;;;;;;;26.92;11.25;;;8.40;99.90;;;;;;5092950;28;20130;-71
2023/02/22 06:21:55;;;;;;;28.65;11.93;;;8.40;99.90;;;;;;5091862;28;20131;-70
2023/02/22 06:24:22;;;;;;;27.75;11.77;;;8.50;99.90;;;;;;5092696;28;20036;-72
2023/02/22 06:26:55;;;;;;;32.13;12.18;;;8.40;99.90;;;;;;5092721;28;20036;-71
2023/02/22 06:29:22;;;;;;;30.92;12.32;;;8.50;99.90;;;;;;5092424;28;20051;-71
2023/02/22 06:31:49;;;;;;;31.67;12.40;;;8.50;99.90;;;;;;5093449;28;20047;-72
2023/02/22 06:34:14;;;;;;;30.42;11.73;;;8.40;99.90;;;;;;5092681;28;20032;-72
2023/02/22 06:36:41;;;;;;;29.88;11.57;;;8.50;99.90;;;;;;5092845;28;20458;-71
2023/02/22 06:39:09;;;;;;;32.20;11.65;;;8.50;99.90;;;;;;5060622;28;20114;-72
2023/02/22 06:41:39;;;;;;;31.10;12.38;;;8.50;99.90;;;;;;5050887;28;20033;-71
2023/02/22 06:44:05;;;;;;;28.42;11.88;;;8.50;99.90;;;;;;5051035;28;20413;-72
2023/02/22 06:46:31;;;;;;;31.08;11.88;;;8.60;99.90;;;;;;5052285;28;20029;-73
2023/02/22 06:48:58;;;;;;;28.42;11.50;;;8.60;99.90;;;;;;5051984;28;20104;-72
2023/02/22 06:51:25;;;;;;;33.70;12.37;;;8.70;99.90;;;;;;5051775;28;20033;-71
2023/02/22 06:53:51;;;;;;;36.28;12.45;;;8.70;99.90;;;;;;5051947;28;20315;-72
2023/02/22 06:56:17;;;;;;;35.75;11.85;;;8.70;99.90;;;;;;5051603;28;20033;-71
2023/02/22 06:58:42;;;;;;;25.20;11.02;;;8.80;99.90;;;;;;5052192;28;20502;-72
2023/02/22 07:01:08;;;;;;;30.00;11.98;;;8.80;99.90;;;;;;5052108;28;20039;-71
2023/02/22 07:03:34;;;;;;;33.63;11.55;;;8.90;99.90;;;;;;5051676;28;20048;-71
2023/02/22 07:06:01;;;;;;;30.50;10.55;;;8.90;99.90;;;;;;5051812;28;20410;-72
2023/02/22 07:08:27;;;;;;;31.73;11.82;;;9.00;99.90;;;;;;5050390;28;20040;-71
2023/02/22 07:10:53;;;;;;;26.88;11.32;;;9.00;99.90;;;;;;5051802;28;20033;-72
2023/02/22 07:13:19;;;;;;;23.77;10.38;;;9.10;99.90;;;;;;5050448;28;20493;-72
2023/02/22 07:15:44;;;;;;;28.92;10.93;;;9.10;99.90;;;;;;5051244;28;20456;-71
2023/02/22 07:18:11;;;;;;;33.03;11.93;;;9.10;99.90;;;;;;5051171;28;20418;-71
2023/02/22 07:20:37;;;;;;;29.73;11.73;;;9.10;99.90;;;;;;5051325;28;20099;-71
2023/02/22 07:23:03;;;;;;;28.20;11.95;;;9.20;99.90;;;;;;5051202;28;20036;-71
2023/02/22 07:25:29;;;;;;;32.50;11.70;;;9.40;99.90;;;;;;5050507;28;20509;-70
2023/02/22 07:27:54;;;;;;;28.70;10.95;;;9.50;99.90;;;;;;5050458;28;20033;-70
2023/02/22 07:30:29;;;;;;;31.00;11.80;;;9.50;99.90;;;;;;5050166;28;20037;-70
2023/02/22 07:32:56;;;;;;;30.25;11.65;;;9.60;99.90;;;;;;5050959;28;20097;-71
2023/02/22 07:35:37;;;;;;;26.85;11.07;;;9.50;99.90;;;;;;5049703;28;20464;-71
2023/02/22 07:38:07;;;;;;;28.50;12.63;;;9.60;99.90;;;;;;5051013;28;20083;-71
2023/02/22 07:40:33;;;;;;;31.33;12.88;;;9.60;99.90;;;;;;5051631;28;20025;-71
2023/02/22 07:43:20;;;;;;;32.53;11.05;;;9.70;99.90;;;;;;5049682;28;20037;-71
2023/02/22 07:45:47;;;;;;;37.03;15.23;;;9.60;99.90;;;;;;5050937;28;20034;-71
2023/02/22 07:48:14;;;;;;;29.98;14.02;;;9.60;99.90;;;;;;5050778;28;20029;-71
2023/02/22 07:50:40;;;;;;;31.17;12.30;;;9.80;99.90;;;;;;5049616;28;20044;-71
2023/02/22 07:53:10;;;;;;;35.80;15.95;;;9.90;99.90;;;;;;5050712;28;20029;-70
2023/02/22 07:55:36;;;;;;;33.50;13.55;;;10.00;99.90;;;;;;5050443;28;20120;-72
2023/02/22 07:58:05;;;;;;;25.38;10.70;;;10.00;99.90;;;;;;5050653;28;20266;-72
2023/02/22 08:00:38;;;;;;;29.27;11.43;;;10.10;99.90;;;;;;5050625;28;20040;-71
2023/02/22 08:03:06;;;;;;;24.20;11.20;;;10.20;99.90;;;;;;5050625;28;20044;-71
2023/02/22 08:05:33;;;;;;;25.05;10.88;;;10.30;99.90;;;;;;5050596;28;20095;-71
2023/02/22 08:07:59;;;;;;;34.00;14.40;;;10.40;99.90;;;;;;5050889;28;20025;-71
2023/02/22 08:10:25;;;;;;;28.52;12.27;;;10.40;99.90;;;;;;5050965;28;20462;-70
2023/02/22 08:12:52;;;;;;;27.60;11.63;;;10.70;99.90;;;;;;5050710;28;20029;-71
2023/02/22 08:15:23;;;;;;;27.25;11.23;;;10.60;99.90;;;;;;5050682;28;20033;-71
2023/02/22 08:17:49;;;;;;;23.98;10.70;;;10.70;99.90;;;;;;5049319;28;20040;-71
2023/02/22 08:20:15;;;;;;;21.40;9.85;;;10.90;99.90;;;;;;5050249;28;20033;-71
2023/02/22 08:22:44;;;;;;;24.02;11.10;;;11.00;99.90;;;;;;5050787;28;20143;-71
2023/02/22 08:25:12;;;;;;;27.30;10.05;;;11.10;99.90;;;;;;5050510;28;20021;-73
2023/02/22 08:27:38;;;;;;;23.30;10.73;;;11.10;99.90;;;;;;5050323;28;20112;-71
2023/02/22 08:30:04;;;;;;;25.52;10.63;;;11.20;99.90;;;;;;5049661;28;20037;-70
2023/02/22 08:32:30;;;;;;;29.63;11.20;;;11.30;99.90;;;;;;5050519;28;20033;-71
2023/02/22 08:34:56;;;;;;;25.63;10.52;;;11.40;99.90;;;;;;5050710;28;20506;-71
2023/02/22 08:37:21;;;;;;;19.80;10.10;;;11.40;99.90;;;;;;5051506;28;20017;-72
2023/02/22 08:39:47;;;;;;;26.85;11.40;;;11.40;99.90;;;;;;5053205;28;20025;-71
2023/02/22 08:42:13;;;;;;;24.60;11.73;;;11.50;99.90;;;;;;5054481;28;20037;-72
2023/02/22 08:44:39;;;;;;;24.48;11.43;;;11.60;99.90;;;;;;5055142;28;20037;-71
2023/02/22 08:47:05;;;;;;;24.25;11.18;;;11.70;99.90;;;;;;5055131;28;20374;-70
2023/02/22 08:49:31;;;;;;;33.83;14.52;;;11.80;99.90;;;;;;5055564;28;20093;-71
2023/02/22 08:51:57;;;;;;;28.65;11.73;;;11.80;99.90;;;;;;5053984;28;20029;-70
2023/02/22 08:54:23;;;;;;;31.77;13.18;;;11.80;99.90;;;;;;5054397;28;20506;-71
2023/02/22 08:56:49;;;;;;;27.80;12.55;;;11.70;99.90;;;;;;5054043;28;20107;-71
2023/02/22 08:59:16;;;;;;;26.27;11.40;;;12.00;99.90;;;;;;5054248;28;20066;-71
2023/02/22 09:01:41;;;;;;;29.98;11.70;;;11.90;99.90;;;;;;5054446;28;20048;-71
2023/02/22 09:04:07;;;;;;;25.88;12.40;;;12.00;99.90;;;;;;5053894;28;20068;-71
2023/02/22 09:06:33;;;;;;;24.60;11.77;;;12.10;99.90;;;;;;5052895;28;20040;-71
2023/02/22 09:08:59;;;;;;;30.05;12.68;;;12.30;99.90;;;;;;5053741;28;20116;-72
2023/02/22 09:11:24;;;;;;;27.58;12.35;;;12.20;99.90;;;;;;5053826;28;20037;-71
2023/02/22 09:13:50;;;;;;;24.88;11.73;;;12.30;99.90;;;;;;5053315;28;20025;-69
2023/02/22 09:16:15;;;;;;;23.60;11.48;;;12.30;99.90;;;;;;5053543;28;20045;-71
2023/02/22 09:18:41;;;;;;;26.45;11.38;;;12.30;99.90;;;;;;5052731;28;20068;-70
2023/02/22 09:21:07;;;;;;;25.35;11.35;;;12.30;99.90;;;;;;5053680;28;20094;-71
2023/02/22 09:23:33;;;;;;;23.80;11.57;;;12.30;99.90;;;;;;5053570;28;20044;-71
2023/02/22 09:25:59;;;;;;;29.38;12.18;;;12.30;99.90;;;;;;5053746;28;20051;-71
2023/02/22 09:28:26;;;;;;;28.50;13.38;;;12.40;99.90;;;;;;5054037;28;20094;-70
2023/02/22 09:30:52;;;;;;;27.85;12.45;;;12.40;99.90;;;;;;5053532;28;20490;-72
2023/02/22 09:33:19;;;;;;;21.83;10.32;;;12.40;99.90;;;;;;5052393;28;20041;-75
2023/02/22 09:35:48;;;;;;;24.00;11.88;;;12.50;99.90;;;;;;5053732;28;20033;-74
2023/02/22 09:38:21;;;;;;;25.48;10.88;;;12.50;99.90;;;;;;5053600;28;20044;-73
2023/02/22 09:41:05;;;;;;;25.83;12.40;;;12.60;99.90;;;;;;5053772;28;20017;-70
2023/02/22 09:43:52;;;;;;;23.50;11.02;;;12.70;99.90;;;;;;5053777;28;20090;-71
2023/02/22 09:46:33;;;;;;;28.38;11.73;;;12.90;99.90;;;;;;5053422;28;20040;-70
2023/02/22 09:49:20;;;;;;;24.35;11.40;;;13.10;99.90;;;;;;5052038;28;20511;-71
2023/02/22 09:52:07;;;;;;;31.52;11.63;;;13.20;99.90;;;;;;5052943;28;20040;-71
2023/02/22 09:54:39;;;;;;;26.83;12.32;;;13.30;99.90;;;;;;5052857;28;20492;-71
2023/02/22 09:57:10;;;;;;;21.65;11.43;;;13.50;99.90;;;;;;5052790;28;20044;-71
2023/02/22 09:59:42;;;;;;;25.02;12.32;;;13.50;99.90;;;;;;5052969;28;20035;-71
2023/02/22 10:02:18;;;;;;;25.42;12.38;;;13.60;99.90;;;;;;5052604;28;20040;-71
2023/02/22 10:04:57;;;;;;;26.10;12.98;;;13.80;99.90;;;;;;5053325;28;20053;-72
2023/02/22 10:07:30;;;;;;;25.05;13.43;;;13.80;99.90;;;;;;5071909;28;20115;-72
2023/02/22 10:09:57;;;;;;;29.63;12.85;;;13.90;99.90;;;;;;5072419;28;20086;-71
2023/02/22 10:12:29;;;;;;;24.60;11.98;;;14.00;99.90;;;;;;5072463;28;20497;-69
2023/02/22 10:15:33;;;;;;;26.65;12.30;;;14.10;99.90;;;;;;5072596;28;20085;-71
2023/02/22 10:18:19;;;;;;;24.13;11.68;;;14.30;99.90;;;;;;5072394;28;20296;-71
2023/02/22 10:20:53;;;;;;;26.90;12.73;;;14.40;99.90;;;;;;5071228;28;20032;-71
2023/02/22 10:23:35;;;;;;;32.80;15.52;;;14.40;99.90;;;;;;5072218;28;20029;-70
2023/02/22 10:26:24;;;;;;;22.70;12.32;;;14.80;99.90;;;;;;5072332;28;20021;-70
2023/02/22 10:29:04;;;;;;;24.90;11.80;;;15.10;99.90;;;;;;5072628;28;20497;-70
2023/02/22 10:31:39;;;;;;;23.98;11.90;;;15.30;99.90;;;;;;5071228;28;20044;-72
2023/02/22 10:34:22;;;;;;;22.40;11.13;;;15.70;99.90;;;;;;5072094;28;20033;-72
2023/02/22 10:36:54;;;;;;;22.95;11.20;;;15.80;99.10;;;;;;5070839;28;20051;-72
2023/02/22 10:39:38;;;;;;;20.08;10.57;;;15.90;98.70;;;;;;5072035;28;20025;-72
2023/02/22 10:42:06;;;;;;;21.85;10.93;;;16.00;98.90;;;;;;5072135;28;20033;-72
2023/02/22 10:44:37;;;;;;;26.70;11.80;;;16.40;98.10;;;;;;5072248;28;20101;-72
2023/02/22 10:47:09;;;;;;;21.08;10.93;;;16.40;97.90;;;;;;5071977;28;20347;-71
2023/02/22 10:49:54;;;;;;;23.73;11.63;;;16.80;97.60;;;;;;5072276;28;20028;-71
2023/02/22 10:52:33;;;;;;;20.85;11.70;;;17.20;97.50;;;;;;5071905;28;20044;-71
2023/02/22 10:55:01;;;;;;;23.40;12.23;;;17.40;97.20;;;;;;5071787;28;20451;-71
2023/02/22 10:57:35;;;;;;;27.35;13.00;;;17.60;96.60;;;;;;5071654;28;20033;-72
2023/02/22 11:00:18;;;;;;;26.42;14.02;;;17.70;96.10;;;;;;5070764;28;20032;-71
2023/02/22 11:02:57;;;;;;;22.85;12.35;;;18.00;95.70;;;;;;5071596;28;20048;-72
2023/02/22 11:05:35;;;;;;;21.77;11.05;;;17.80;95.40;;;;;;5071622;28;20060;-71
2023/02/22 11:08:28;;;;;;;23.40;12.32;;;17.80;95.40;;;;;;5070166;28;20024;-72
2023/02/22 11:10:56;;;;;;;20.63;10.98;;;18.20;95.40;;;;;;5062947;28;20063;-71
2023/02/22 11:13:29;;;;;;;19.58;11.63;;;18.00;94.90;;;;;;5070781;28;20025;-72
2023/02/22 11:16:20;;;;;;;22.95;11.88;;;17.70;94.90;;;;;;5071252;28;20086;-72
2023/02/22 11:18:47;;;;;;;25.98;11.32;;;17.50;95.00;;;;;;5070724;28;20036;-71
2023/02/22 11:21:21;;;;;;;16.17;10.27;;;17.40;95.30;;;;;;5071247;28;20486;-71
2023/02/22 11:23:49;;;;;;;21.17;10.85;;;17.30;95.70;;;;;;5069969;28;20277;-72
2023/02/22 11:26:19;;;;;;;24.52;10.90;;;17.30;95.70;;;;;;5069959;28;20068;-70
2023/02/22 11:28:54;;;;;;;23.65;11.27;;;17.40;96.10;;;;;;5071269;28;20050;-72
2023/02/22 11:31:28;;;;;;;23.85;12.07;;;17.60;95.80;;;;;;5071664;28;20453;-71
2023/02/22 11:34:00;;;;;;;18.30;10.02;;;17.80;95.30;;;;;;5070996;28;20024;-71
2023/02/22 11:36:39;;;;;;;18.95;10.18;;;17.90;95.70;;;;;;5070727;28;20090;-72
2023/02/22 11:39:26;;;;;;;23.58;11.45;;;18.00;95.60;;;;;;5070821;28;20056;-71
2023/02/22 11:41:54;;;;;;;20.43;10.80;;;18.10;95.10;;;;;;5070820;28;20124;-75
2023/02/22 11:44:29;;;;;;;23.90;10.32;;;17.90;95.00;;;;;;5070700;28;20273;-73
2023/02/22 11:47:01;;;;;;;21.50;10.85;;;17.90;95.20;;;;;;5070655;28;20107;-73
2023/02/22 11:49:37;;;;;;;21.98;11.05;;;17.70;95.10;;;;;;5070420;28;20422;-75
2023/02/22 11:52:35;;;;;;;23.08;12.57;;;17.50;95.40;;;;;;5071426;28;20048;-75
2023/02/22 11:55:23;;;;;;;27.30;13.32;;;17.30;95.70;;;;;;5048221;28;20031;-71
2023/02/22 11:58:23;;;;;;;22.23;11.30;;;17.30;95.60;;;;;;5070748;28;20036;-71
2023/02/22 12:01:17;;;;;;;24.30;12.18;;;17.00;95.90;;;;;;5070626;28;20101;-72
2023/02/22 12:03:43;;;;;;;21.77;11.32;;;17.10;96.00;;;;;;5070696;28;20044;-72
2023/02/22 12:06:17;;;;;;;21.08;10.45;;;17.10;95.90;;;;;;5070528;28;20086;-72
2023/02/22 12:08:49;;;;;;;19.08;10.13;;;17.00;96.10;;;;;;5069326;28;20032;-72
2023/02/22 12:11:17;;;;;;;20.77;10.02;;;17.10;96.20;;;;;;5070468;28;20195;-72
2023/02/22 12:13:58;;;;;;;21.05;10.93;;;17.10;96.20;;;;;;5069431;28;20013;-73
2023/02/22 12:16:36;;;;;;;20.33;10.48;;;17.10;96.00;;;;;;5070379;28;20454;-71
2023/02/22 12:19:21;;;;;;;26.88;11.32;;;17.00;95.90;;;;;;5069288;28;20041;-71
2023/02/22 12:21:56;;;;;;;25.77;10.38;;;17.00;96.00;;;;;;5070668;28;20044;-73
2023/02/22 12:24:27;;;;;;;25.00;11.55;;;17.00;96.10;;;;;;5070335;28;20115;-71
2023/02/22 12:27:00;;;;;;;21.65;10.98;;;16.90;96.20;;;;;;5070274;28;20470;-72
2023/02/22 12:29:42;;;;;;;18.42;10.30;;;16.90;96.20;;;;;;5070133;28;20041;-72
2023/02/22 12:32:28;;;;;;;20.98;9.80;;;16.90;96.10;;;;;;5070626;28;20032;-73
2023/02/22 12:35:04;;;;;;;29.38;16.00;;;16.80;96.20;;;;;;5070215;28;20017;-72
2023/02/22 12:37:49;;;;;;;22.00;11.90;;;16.80;96.30;;;;;;5070491;28;20278;-73
2023/02/22 12:40:29;;;;;;;19.60;10.02;;;16.70;96.30;;;;;;5070034;28;20431;-72
2023/02/22 12:42:58;;;;;;;20.42;9.98;;;16.60;96.20;;;;;;5070127;28;20042;-71
2023/02/22 12:45:35;;;;;;;23.90;10.85;;;16.40;96.50;;;;;;5070162;28;20033;-72
2023/02/22 12:48:30;;;;;;;25.50;10.77;;;16.30;96.80;;;;;;5070201;28;20025;-71
2023/02/22 12:51:19;;;;;;;17.15;8.95;;;16.50;96.70;;;;;;5070025;28;20552;-72